Time;durP1;ratioP1;P1;durP2;ratioP2;P2;SDS_P1;SDS_P2;PMS_P1;PMS_P2;Temp;Humidity;BMP_temperature;BMP_pressure;BME280_temperature;BME280_humidity;BME280_pressure;Samples;Min_cycle;Max_cycle;Signal;HPM_P1;HPM_P2
2024/04/25 00:03:49;;;;;;;1.00;1.00;;;;;;;;;;10979664;26;20041;-47
2024/04/25 00:08:50;;;;;;;1.00;1.00;;;;;;;;;;10982339;26;20078;-50
2024/04/25 00:13:53;;;;;;;2.67;1.05;;;;;;;;;;10982529;26;20096;-47
2024/04/25 00:18:55;;;;;;;2.00;1.23;;;;;;;;;;10976814;26;20005;-49
2024/04/25 00:23:56;;;;;;;5.97;1.25;;;;;;;;;;10985571;26;20607;-48
2024/04/25 00:28:57;;;;;;;1.30;1.20;;;;;;;;;;11008012;26;20004;-50
2024/04/25 00:33:58;;;;;;;1.27;1.05;;;;;;;;;;11004141;26;20102;-48
2024/04/25 00:39:00;;;;;;;1.02;1.02;;;;;;;;;;11001368;26;20400;-49
2024/04/25 00:44:02;;;;;;;1.00;1.00;;;;;;;;;;11002739;26;20045;-51
2024/04/25 00:49:03;;;;;;;1.20;1.10;;;;;;;;;;11020816;26;20004;-55
2024/04/25 00:54:04;;;;;;;2.55;1.10;;;;;;;;;;10983864;26;20105;-48
2024/04/25 00:59:08;;;;;;;1.20;1.10;;;;;;;;;;10981951;26;19998;-49
2024/04/25 01:04:11;;;;;;;1.25;1.15;;;;;;;;;;10978580;26;20034;-46
2024/04/25 01:09:12;;;;;;;0.85;0.85;;;;;;;;;;10998344;26;20001;-46
2024/04/25 01:14:13;;;;;;;1.00;1.00;;;;;;;;;;10980636;26;20396;-48
2024/04/25 01:19:14;;;;;;;2.30;1.33;;;;;;;;;;11002437;26;20095;-49
2024/04/25 01:24:29;;;;;;;0.98;0.98;;;;;;;;;;11000980;26;20015;-45
2024/04/25 01:29:32;;;;;;;1.17;1.10;;;;;;;;;;10980897;26;20192;-47
2024/04/25 01:34:33;;;;;;;2.80;0.95;;;;;;;;;;11062125;26;20396;-48
2024/04/25 01:39:35;;;;;;;0.90;0.90;;;;;;;;;;10990122;26;20001;-50
2024/04/25 01:44:36;;;;;;;3.85;1.20;;;;;;;;;;11009736;26;20020;-54
2024/04/25 01:49:37;;;;;;;0.82;0.82;;;;;;;;;;10999342;26;20060;-51
2024/04/25 01:54:38;;;;;;;8.38;1.27;;;;;;;;;;10991668;26;20001;-49
2024/04/25 01:59:39;;;;;;;1.75;1.00;;;;;;;;;;10996401;26;20421;-48
2024/04/25 02:04:40;;;;;;;4.32;0.95;;;;;;;;;;11009959;26;20100;-51
2024/04/25 02:09:41;;;;;;;1.10;0.98;;;;;;;;;;10980670;26;20033;-47
2024/04/25 02:14:42;;;;;;;0.90;0.90;;;;;;;;;;10999590;26;20372;-46
2024/04/25 02:19:43;;;;;;;1.00;0.80;;;;;;;;;;10976724;26;20100;-50
2024/04/25 02:30:05;;;;;;;1.98;1.00;;;;;;;;;;11002925;26;20013;-49
2024/04/25 02:35:07;;;;;;;1.40;1.00;;;;;;;;;;10994745;26;20030;-47
2024/04/25 02:40:08;;;;;;;1.63;0.90;;;;;;;;;;10978981;26;20030;-49
2024/04/25 02:45:10;;;;;;;1.00;1.00;;;;;;;;;;11000407;26;20008;-50
2024/04/25 02:50:11;;;;;;;1.17;0.98;;;;;;;;;;11014544;26;20495;-46
2024/04/25 02:55:13;;;;;;;0.80;0.80;;;;;;;;;;11002007;26;20109;-50
2024/04/25 03:00:15;;;;;;;2.38;1.00;;;;;;;;;;11012260;26;20071;-47
2024/04/25 03:05:16;;;;;;;1.08;1.08;;;;;;;;;;10978492;26;20042;-46
2024/04/25 03:10:17;;;;;;;1.33;1.10;;;;;;;;;;10990920;26;20083;-49
2024/04/25 03:15:18;;;;;;;0.88;0.85;;;;;;;;;;10988184;26;20001;-49
2024/04/25 03:20:19;;;;;;;0.90;0.90;;;;;;;;;;10977131;26;20329;-48
2024/04/25 03:25:20;;;;;;;1.30;0.80;;;;;;;;;;10972760;26;20006;-48
2024/04/25 03:30:22;;;;;;;1.08;1.00;;;;;;;;;;10980807;26;20091;-48
2024/04/25 03:35:23;;;;;;;0.90;0.90;;;;;;;;;;10995496;26;20041;-46
2024/04/25 03:40:24;;;;;;;1.95;0.95;;;;;;;;;;10981425;26;20026;-52
2024/04/25 03:45:25;;;;;;;0.90;0.90;;;;;;;;;;10987854;26;20075;-49
2024/04/25 03:50:26;;;;;;;0.80;0.80;;;;;;;;;;10996806;26;20314;-50
2024/04/25 03:55:27;;;;;;;1.83;1.10;;;;;;;;;;11005197;26;20005;-49
2024/04/25 04:00:28;;;;;;;0.90;0.90;;;;;;;;;;10995801;26;20089;-51
2024/04/25 04:05:29;;;;;;;0.80;0.80;;;;;;;;;;11001706;26;20030;-48
2024/04/25 04:10:31;;;;;;;1.10;1.00;;;;;;;;;;10985449;26;20087;-51
2024/04/25 04:15:32;;;;;;;0.80;0.80;;;;;;;;;;10993458;26;20005;-46
2024/04/25 04:20:34;;;;;;;1.25;1.08;;;;;;;;;;10987108;26;20590;-47
2024/04/25 04:25:36;;;;;;;0.90;0.90;;;;;;;;;;11003220;26;20017;-52
2024/04/25 04:30:37;;;;;;;0.90;0.90;;;;;;;;;;11005997;26;20029;-50
2024/04/25 04:35:38;;;;;;;0.80;0.80;;;;;;;;;;11002791;26;20005;-50
2024/04/25 04:40:39;;;;;;;0.90;0.90;;;;;;;;;;10987704;26;20009;-47
2024/04/25 04:45:40;;;;;;;0.85;0.85;;;;;;;;;;10997640;26;20067;-49
2024/04/25 04:50:42;;;;;;;0.95;0.95;;;;;;;;;;10999163;26;20011;-47
2024/04/25 04:55:43;;;;;;;0.70;0.70;;;;;;;;;;11010379;26;20067;-52
2024/04/25 05:00:44;;;;;;;0.90;0.90;;;;;;;;;;10997380;26;20005;-53
2024/04/25 05:05:45;;;;;;;1.92;1.02;;;;;;;;;;11001979;26;19998;-48
2024/04/25 05:10:46;;;;;;;1.17;1.08;;;;;;;;;;10995908;26;20085;-45
2024/04/25 05:15:47;;;;;;;0.80;0.80;;;;;;;;;;10990661;26;20088;-49
2024/04/25 05:20:49;;;;;;;1.33;0.95;;;;;;;;;;10999625;26;20030;-49
2024/04/25 05:25:50;;;;;;;0.90;0.90;;;;;;;;;;10984008;26;19994;-49
2024/04/25 05:30:51;;;;;;;4.80;0.90;;;;;;;;;;10972869;26;20017;-47
2024/04/25 05:35:52;;;;;;;0.80;0.80;;;;;;;;;;10981325;26;20022;-50
2024/04/25 05:40:53;;;;;;;0.88;0.88;;;;;;;;;;11012934;26;20016;-46
2024/04/25 05:45:54;;;;;;;1.40;0.85;;;;;;;;;;10993242;26;20005;-49
2024/04/25 05:50:55;;;;;;;0.70;0.70;;;;;;;;;;10976249;26;20002;-48
2024/04/25 05:55:57;;;;;;;0.80;0.80;;;;;;;;;;10978530;26;20720;-48
2024/04/25 06:00:58;;;;;;;0.80;0.80;;;;;;;;;;10986290;26;20057;-47
2024/04/25 06:06:01;;;;;;;0.77;0.77;;;;;;;;;;10978708;26;20093;-49
2024/04/25 06:11:02;;;;;;;0.90;0.90;;;;;;;;;;11006802;26;20579;-50
2024/04/25 06:16:05;;;;;;;1.23;0.80;;;;;;;;;;11004660;26;20103;-48
2024/04/25 06:21:06;;;;;;;0.90;0.90;;;;;;;;;;10981361;26;20080;-50
2024/04/25 06:26:08;;;;;;;3.17;1.00;;;;;;;;;;10978491;26;20005;-51
2024/04/25 06:31:09;;;;;;;0.80;0.80;;;;;;;;;;10976297;26;20017;-48
2024/04/25 06:36:10;;;;;;;0.73;0.73;;;;;;;;;;10975429;26;20001;-48
2024/04/25 06:41:12;;;;;;;0.80;0.80;;;;;;;;;;10974168;26;20029;-47
2024/04/25 06:46:13;;;;;;;0.85;0.85;;;;;;;;;;10972856;26;20010;-48
2024/04/25 06:51:18;;;;;;;2.53;0.80;;;;;;;;;;10974392;26;20005;-49
2024/04/25 06:56:20;;;;;;;0.70;0.70;;;;;;;;;;10975558;26;19998;-46
2024/04/25 07:01:21;;;;;;;1.00;0.77;;;;;;;;;;10997093;26;20105;-48
2024/04/25 07:06:22;;;;;;;0.73;0.73;;;;;;;;;;10978871;26;20014;-52
2024/04/25 07:11:23;;;;;;;7.82;0.98;;;;;;;;;;10978685;26;20033;-51
2024/04/25 07:16:24;;;;;;;0.80;0.80;;;;;;;;;;10974261;26;20071;-45
2024/04/25 07:21:28;;;;;;;1.98;1.00;;;;;;;;;;10985160;26;20132;-48
2024/04/25 07:26:29;;;;;;;3.25;1.00;;;;;;;;;;10938298;26;20457;-48
2024/04/25 07:31:30;;;;;;;2.00;0.90;;;;;;;;;;10915393;27;20038;-45
2024/04/25 07:36:35;;;;;;;1.00;1.00;;;;;;;;;;10949587;27;20602;-47
2024/04/25 07:41:36;;;;;;;2.05;1.00;;;;;;;;;;10936747;27;20002;-47
2024/04/25 07:46:37;;;;;;;0.90;0.90;;;;;;;;;;10941888;26;20034;-51
2024/04/25 07:51:39;;;;;;;1.13;0.90;;;;;;;;;;10932276;27;20005;-47
2024/04/25 07:56:40;;;;;;;0.80;0.80;;;;;;;;;;10972243;26;20088;-47
2024/04/25 08:01:41;;;;;;;1.60;0.95;;;;;;;;;;10953912;27;20002;-46
2024/04/25 08:06:42;;;;;;;3.20;0.90;;;;;;;;;;10969979;27;20049;-50
2024/04/25 08:11:44;;;;;;;1.65;0.80;;;;;;;;;;10939444;26;20034;-50
2024/04/25 08:16:47;;;;;;;2.15;0.90;;;;;;;;;;10911181;27;19994;-50
2024/04/25 08:21:48;;;;;;;1.33;0.90;;;;;;;;;;10915319;27;20002;-55
2024/04/25 08:26:49;;;;;;;1.00;1.00;;;;;;;;;;10978544;26;20086;-51
2024/04/25 08:31:52;;;;;;;5.68;0.90;;;;;;;;;;10988929;26;20009;-48
2024/04/25 08:36:54;;;;;;;0.98;0.98;;;;;;;;;;10987530;26;20017;-53
2024/04/25 08:41:56;;;;;;;0.80;0.80;;;;;;;;;;10980368;26;20001;-57
2024/04/25 08:46:59;;;;;;;2.88;1.00;;;;;;;;;;10979871;26;20016;-46
2024/04/25 08:52:04;;;;;;;1.67;1.27;;;;;;;;;;10964276;26;20005;-46
2024/04/25 08:57:05;;;;;;;0.98;0.93;;;;;;;;;;10978097;26;20075;-49
2024/04/25 09:02:14;;;;;;;0.90;0.90;;;;;;;;;;10982167;26;20002;-51
2024/04/25 09:07:16;;;;;;;1.00;0.80;;;;;;;;;;10984494;26;20418;-50
2024/04/25 09:12:17;;;;;;;8.90;1.67;;;;;;;;;;10980432;26;20001;-45
2024/04/25 09:17:19;;;;;;;3.53;1.10;;;;;;;;;;10980658;26;20005;-46
2024/04/25 09:22:21;;;;;;;1.85;0.98;;;;;;;;;;10971999;26;20033;-45
2024/04/25 09:27:22;;;;;;;3.75;0.90;;;;;;;;;;10995102;26;20024;-47
2024/04/25 09:32:23;;;;;;;1.17;0.88;;;;;;;;;;10978117;26;20087;-49
2024/04/25 09:37:25;;;;;;;1.45;0.80;;;;;;;;;;10978361;26;20002;-46
2024/04/25 09:42:27;;;;;;;0.90;0.68;;;;;;;;;;10979544;26;20013;-45
2024/04/25 09:47:35;;;;;;;1.65;1.05;;;;;;;;;;10999067;26;20005;-47
2024/04/25 09:52:48;;;;;;;0.63;0.63;;;;;;;;;;10971814;26;20079;-45
2024/04/25 09:57:53;;;;;;;0.70;0.70;;;;;;;;;;10963794;26;20324;-46
2024/04/25 10:02:56;;;;;;;0.82;0.82;;;;;;;;;;10973917;26;20002;-46
2024/04/25 10:07:58;;;;;;;2.08;0.80;;;;;;;;;;10969647;27;20002;-48
2024/04/25 10:12:59;;;;;;;3.13;0.70;;;;;;;;;;10979024;26;20135;-49
2024/04/25 10:18:04;;;;;;;7.55;0.80;;;;;;;;;;10975366;26;20052;-44
2024/04/25 10:23:09;;;;;;;1.38;1.25;;;;;;;;;;10972626;26;20016;-46
2024/04/25 10:28:12;;;;;;;1.25;0.90;;;;;;;;;;10978770;26;20019;-47
2024/04/25 10:33:14;;;;;;;0.73;0.70;;;;;;;;;;10978589;26;20006;-50
2024/04/25 10:38:21;;;;;;;0.60;0.60;;;;;;;;;;10976581;26;20376;-47
2024/04/25 10:43:22;;;;;;;0.75;0.70;;;;;;;;;;10979019;26;20002;-46
2024/04/25 10:48:23;;;;;;;1.02;0.75;;;;;;;;;;10978982;26;20079;-47
2024/04/25 10:53:25;;;;;;;0.73;0.65;;;;;;;;;;10977003;26;20001;-45
2024/04/25 10:58:26;;;;;;;1.50;0.80;;;;;;;;;;10978426;26;20049;-46
2024/04/25 11:03:27;;;;;;;0.70;0.70;;;;;;;;;;10979616;26;20070;-47
2024/04/25 11:08:28;;;;;;;4.10;0.80;;;;;;;;;;11033707;26;20388;-46
2024/04/25 11:13:30;;;;;;;3.40;0.65;;;;;;;;;;10977823;26;20001;-48
2024/04/25 11:18:33;;;;;;;1.33;0.60;;;;;;;;;;10986413;26;20006;-48
2024/04/25 11:23:34;;;;;;;2.63;0.77;;;;;;;;;;10977708;26;20017;-47
2024/04/25 11:28:36;;;;;;;1.23;0.65;;;;;;;;;;10979592;26;20078;-47
2024/04/25 11:33:42;;;;;;;0.70;0.70;;;;;;;;;;10975620;26;20444;-55
2024/04/25 11:38:43;;;;;;;2.78;0.60;;;;;;;;;;10977869;26;20449;-52
2024/04/25 11:43:44;;;;;;;0.95;0.57;;;;;;;;;;10997632;26;20020;-47
2024/04/25 11:48:52;;;;;;;0.60;0.55;;;;;;;;;;10997769;26;20017;-48
2024/04/25 11:53:54;;;;;;;0.60;0.60;;;;;;;;;;10982468;26;20444;-47
2024/04/25 11:58:55;;;;;;;1.70;0.75;;;;;;;;;;10979204;26;20311;-47
2024/04/25 12:03:56;;;;;;;1.25;0.65;;;;;;;;;;10982215;26;20037;-46
2024/04/25 12:08:57;;;;;;;0.80;0.80;;;;;;;;;;10983977;27;20006;-49
2024/04/25 12:13:58;;;;;;;1.85;0.60;;;;;;;;;;10984022;26;20017;-49
2024/04/25 12:18:59;;;;;;;0.52;0.52;;;;;;;;;;10984419;26;20077;-45
2024/04/25 12:24:00;;;;;;;0.73;0.63;;;;;;;;;;10984070;26;20072;-47
2024/04/25 12:29:01;;;;;;;1.00;0.70;;;;;;;;;;10983410;26;20013;-46
2024/04/25 12:34:02;;;;;;;1.15;0.60;;;;;;;;;;10980553;26;19997;-47
2024/04/25 12:39:04;;;;;;;0.60;0.60;;;;;;;;;;10984542;26;20030;-48
2024/04/25 12:44:06;;;;;;;0.60;0.60;;;;;;;;;;10981806;26;20430;-46
2024/04/25 12:49:08;;;;;;;1.25;0.68;;;;;;;;;;10981728;27;20006;-48
2024/04/25 12:54:09;;;;;;;0.63;0.63;;;;;;;;;;10983320;26;20373;-48
2024/04/25 12:59:10;;;;;;;0.80;0.50;;;;;;;;;;10982473;27;20070;-47
2024/04/25 13:04:11;;;;;;;0.57;0.57;;;;;;;;;;10983595;26;20029;-49
2024/04/25 13:09:12;;;;;;;0.63;0.63;;;;;;;;;;10961681;26;20037;-45
2024/04/25 13:14:13;;;;;;;0.57;0.57;;;;;;;;;;10979058;27;20001;-48
2024/04/25 13:19:14;;;;;;;0.88;0.73;;;;;;;;;;10981694;27;19998;-51
2024/04/25 13:24:15;;;;;;;1.08;0.80;;;;;;;;;;11048161;21;20111;-59
2024/04/25 13:29:17;;;;;;;0.57;0.57;;;;;;;;;;11056111;26;20033;-59
2024/04/25 13:34:21;;;;;;;0.63;0.57;;;;;;;;;;10995098;26;20001;-59
2024/04/25 13:39:23;;;;;;;0.43;0.38;;;;;;;;;;10940666;26;20555;-59
2024/04/25 13:44:24;;;;;;;0.63;0.63;;;;;;;;;;10991393;26;20012;-59
2024/04/25 13:49:25;;;;;;;1.17;0.50;;;;;;;;;;10958324;27;20389;-59
2024/04/25 13:54:26;;;;;;;0.70;0.70;;;;;;;;;;10976764;26;20041;-59
2024/04/25 13:59:27;;;;;;;0.50;0.50;;;;;;;;;;10978869;27;20013;-59
2024/04/25 14:04:28;;;;;;;0.50;0.50;;;;;;;;;;10979865;26;20029;-59
2024/04/25 14:09:30;;;;;;;0.95;0.50;;;;;;;;;;10976786;26;20002;-59
2024/04/25 14:14:31;;;;;;;0.50;0.50;;;;;;;;;;10975965;26;20005;-59
2024/04/25 14:19:33;;;;;;;0.95;0.60;;;;;;;;;;10975223;27;20434;-59
2024/04/25 14:24:35;;;;;;;0.70;0.60;;;;;;;;;;10977412;26;20013;-60
2024/04/25 14:29:40;;;;;;;0.50;0.50;;;;;;;;;;10978249;26;20009;-59
2024/04/25 14:34:42;;;;;;;0.85;0.70;;;;;;;;;;10986346;26;20005;-59
2024/04/25 14:39:43;;;;;;;0.63;0.50;;;;;;;;;;10975573;26;20505;-60
2024/04/25 14:44:47;;;;;;;0.60;0.60;;;;;;;;;;10954268;26;20113;-60
2024/04/25 14:49:48;;;;;;;0.52;0.52;;;;;;;;;;10977610;27;20002;-59
2024/04/25 14:54:49;;;;;;;1.05;0.70;;;;;;;;;;10972651;26;20037;-59
2024/04/25 14:59:50;;;;;;;0.60;0.60;;;;;;;;;;10976600;27;20481;-59
2024/04/25 15:04:53;;;;;;;0.38;0.38;;;;;;;;;;10974616;27;20002;-59
2024/04/25 15:09:55;;;;;;;1.45;0.60;;;;;;;;;;10977273;27;20337;-59
2024/04/25 15:14:56;;;;;;;0.40;0.40;;;;;;;;;;10976562;26;20002;-59
2024/04/25 15:19:57;;;;;;;0.50;0.50;;;;;;;;;;10974061;27;20388;-59
2024/04/25 15:24:58;;;;;;;0.75;0.40;;;;;;;;;;10974996;26;20100;-59
2024/04/25 15:29:59;;;;;;;0.40;0.40;;;;;;;;;;10941766;27;20414;-59
2024/04/25 15:35:01;;;;;;;0.50;0.50;;;;;;;;;;10971448;26;20022;-59
2024/04/25 15:40:02;;;;;;;0.50;0.50;;;;;;;;;;10983033;27;20080;-60
2024/04/25 15:45:03;;;;;;;0.50;0.50;;;;;;;;;;10983674;26;20034;-60
2024/04/25 15:50:05;;;;;;;0.50;0.50;;;;;;;;;;10982048;27;20038;-59
2024/04/25 15:55:06;;;;;;;0.45;0.45;;;;;;;;;;10979273;26;20078;-59
2024/04/25 16:00:09;;;;;;;0.52;0.52;;;;;;;;;;10982325;27;20012;-60
2024/04/25 16:05:10;;;;;;;0.47;0.47;;;;;;;;;;10981924;26;20439;-59
2024/04/25 16:10:12;;;;;;;0.57;0.57;;;;;;;;;;10981364;27;20037;-59
2024/04/25 16:15:13;;;;;;;0.60;0.60;;;;;;;;;;10980401;26;20353;-59
2024/04/25 16:20:14;;;;;;;0.50;0.50;;;;;;;;;;10982488;27;20037;-59
2024/04/25 16:25:17;;;;;;;0.73;0.70;;;;;;;;;;10979464;26;20485;-59
2024/04/25 16:30:19;;;;;;;0.50;0.50;;;;;;;;;;10982278;26;19997;-59
2024/04/25 16:35:20;;;;;;;0.50;0.50;;;;;;;;;;10981318;26;20006;-60
2024/04/25 16:40:21;;;;;;;0.63;0.63;;;;;;;;;;10980843;27;20100;-60
2024/04/25 16:45:23;;;;;;;0.45;0.45;;;;;;;;;;10960387;26;20099;-60
2024/04/25 16:50:24;;;;;;;0.50;0.50;;;;;;;;;;10979828;27;20020;-59
2024/04/25 16:55:25;;;;;;;0.50;0.50;;;;;;;;;;10973799;26;20340;-59
2024/04/25 17:00:27;;;;;;;0.60;0.60;;;;;;;;;;10976097;27;19997;-59
2024/04/25 17:05:28;;;;;;;0.73;0.73;;;;;;;;;;10958125;27;20441;-59
2024/04/25 17:10:29;;;;;;;2.15;0.77;;;;;;;;;;10977410;27;20362;-59
2024/04/25 17:15:30;;;;;;;0.55;0.55;;;;;;;;;;10979378;26;20002;-59
2024/04/25 17:20:32;;;;;;;1.48;0.68;;;;;;;;;;10981353;26;20489;-59
2024/04/25 17:25:33;;;;;;;0.65;0.65;;;;;;;;;;10976984;26;20017;-59
2024/04/25 17:30:34;;;;;;;1.45;0.52;;;;;;;;;;10978935;27;20183;-59
2024/04/25 17:35:35;;;;;;;3.03;0.95;;;;;;;;;;10980587;26;20033;-59
2024/04/25 17:40:36;;;;;;;0.57;0.57;;;;;;;;;;10978975;27;20628;-58
2024/04/25 17:45:37;;;;;;;2.05;0.70;;;;;;;;;;10976470;27;20334;-59
2024/04/25 17:50:38;;;;;;;1.08;0.60;;;;;;;;;;10948412;27;20046;-59
2024/04/25 17:55:39;;;;;;;1.85;0.75;;;;;;;;;;10966718;27;20020;-59
2024/04/25 18:00:40;;;;;;;3.83;0.80;;;;;;;;;;10977026;27;20379;-59
2024/04/25 18:05:42;;;;;;;0.60;0.60;;;;;;;;;;10978562;27;20112;-59
2024/04/25 18:10:43;;;;;;;4.38;1.15;;;;;;;;;;10969030;27;20001;-59
2024/04/25 18:15:44;;;;;;;7.30;0.75;;;;;;;;;;10977367;27;20009;-59
2024/04/25 18:20:45;;;;;;;11.32;1.17;;;;;;;;;;10978861;27;20025;-60
2024/04/25 18:25:46;;;;;;;5.00;1.10;;;;;;;;;;10977252;26;20039;-59
2024/04/25 18:30:48;;;;;;;1.40;0.65;;;;;;;;;;10976105;27;20124;-59
2024/04/25 18:35:49;;;;;;;2.58;0.77;;;;;;;;;;10971860;26;20407;-59
2024/04/25 18:40:50;;;;;;;0.75;0.75;;;;;;;;;;10946506;27;20352;-59
2024/04/25 18:45:51;;;;;;;1.95;0.82;;;;;;;;;;10974120;26;20041;-59
2024/04/25 18:50:52;;;;;;;1.85;0.73;;;;;;;;;;10976668;27;20018;-60
2024/04/25 18:55:54;;;;;;;2.67;0.70;;;;;;;;;;10975854;27;20002;-59
2024/04/25 19:00:56;;;;;;;1.50;0.98;;;;;;;;;;10970038;27;20005;-59
2024/04/25 19:05:57;;;;;;;0.70;0.70;;;;;;;;;;10965531;26;20037;-59
2024/04/25 19:10:58;;;;;;;3.92;0.85;;;;;;;;;;10971543;27;20034;-61
2024/04/25 19:15:59;;;;;;;0.80;0.60;;;;;;;;;;10968624;26;20037;-60
2024/04/25 19:21:01;;;;;;;2.33;0.80;;;;;;;;;;10957634;27;20019;-60
2024/04/25 19:26:03;;;;;;;1.75;0.90;;;;;;;;;;10974454;26;20021;-59
2024/04/25 19:31:04;;;;;;;1.77;1.02;;;;;;;;;;10969684;27;20020;-60
2024/04/25 19:36:13;;;;;;;2.50;1.00;;;;;;;;;;10955064;26;20076;-59
2024/04/25 19:41:14;;;;;;;6.00;0.82;;;;;;;;;;10972213;27;20108;-59
2024/04/25 19:46:15;;;;;;;9.93;1.23;;;;;;;;;;10965549;26;20006;-60
2024/04/25 19:51:16;;;;;;;4.65;1.17;;;;;;;;;;10972313;27;20005;-60
2024/04/25 19:56:17;;;;;;;4.55;0.90;;;;;;;;;;10964611;27;20020;-59
2024/04/25 20:01:18;;;;;;;6.80;1.23;;;;;;;;;;10971331;27;20037;-59
2024/04/25 20:06:23;;;;;;;2.97;0.90;;;;;;;;;;10972603;27;20009;-59
2024/04/25 20:11:25;;;;;;;2.95;1.20;;;;;;;;;;10973860;27;20002;-59
2024/04/25 20:16:26;;;;;;;5.30;1.23;;;;;;;;;;10973089;27;20017;-59
2024/04/25 20:21:27;;;;;;;3.22;1.60;;;;;;;;;;10973254;26;20002;-59
2024/04/25 20:26:28;;;;;;;11.05;1.70;;;;;;;;;;10975489;27;20391;-59
2024/04/25 20:31:29;;;;;;;2.03;1.10;;;;;;;;;;10978208;26;20129;-59
2024/04/25 20:36:31;;;;;;;3.55;1.25;;;;;;;;;;10963671;27;20002;-59
2024/04/25 20:41:32;;;;;;;9.18;1.33;;;;;;;;;;10969922;26;20001;-60
2024/04/25 20:46:34;;;;;;;7.82;1.63;;;;;;;;;;10980723;26;20112;-62
2024/04/25 20:51:38;;;;;;;8.75;1.38;;;;;;;;;;10944455;27;20039;-60
2024/04/25 20:56:40;;;;;;;5.93;1.40;;;;;;;;;;10949454;27;20061;-60
2024/04/25 21:01:41;;;;;;;17.73;2.58;;;;;;;;;;10961016;26;20014;-61
2024/04/25 21:06:42;;;;;;;25.77;2.50;;;;;;;;;;10965656;27;20450;-60
2024/04/25 21:11:43;;;;;;;16.55;2.95;;;;;;;;;;10977043;26;20096;-60
2024/04/25 21:16:45;;;;;;;12.55;1.80;;;;;;;;;;10953586;27;20361;-60
2024/04/25 21:21:46;;;;;;;5.82;1.50;;;;;;;;;;10978422;26;20024;-60
2024/04/25 21:26:47;;;;;;;6.07;2.03;;;;;;;;;;10937997;26;993883;-61
2024/04/25 21:31:52;;;;;;;19.75;2.15;;;;;;;;;;10978275;26;20001;-60
2024/04/25 21:36:53;;;;;;;1.95;1.42;;;;;;;;;;10978932;27;20008;-60
2024/04/25 21:41:54;;;;;;;7.10;1.67;;;;;;;;;;10977533;26;20100;-60
2024/04/25 21:46:55;;;;;;;5.32;1.80;;;;;;;;;;10976610;26;20005;-61
2024/04/25 21:51:56;;;;;;;4.05;1.48;;;;;;;;;;10971365;26;20053;-61
2024/04/25 21:56:59;;;;;;;5.43;1.40;;;;;;;;;;10974059;27;20608;-61
2024/04/25 22:02:00;;;;;;;2.45;1.52;;;;;;;;;;10974388;26;20077;-61
2024/04/25 22:07:02;;;;;;;4.30;1.42;;;;;;;;;;10977312;27;19993;-61
2024/04/25 22:12:03;;;;;;;3.55;1.70;;;;;;;;;;10979339;26;20430;-61
2024/04/25 22:17:04;;;;;;;4.03;1.63;;;;;;;;;;10979143;27;20600;-61
2024/04/25 22:22:05;;;;;;;5.43;1.65;;;;;;;;;;10977203;26;20408;-61
2024/04/25 22:27:07;;;;;;;7.32;1.65;;;;;;;;;;10975936;27;20029;-61
2024/04/25 22:32:08;;;;;;;6.53;1.42;;;;;;;;;;10978760;26;20567;-61
2024/04/25 22:37:09;;;;;;;3.75;1.60;;;;;;;;;;10972973;26;20037;-61
2024/04/25 22:42:10;;;;;;;12.27;1.60;;;;;;;;;;10997160;26;20458;-61
2024/04/25 22:47:11;;;;;;;5.53;1.40;;;;;;;;;;10995420;26;20038;-61
2024/04/25 22:52:12;;;;;;;2.30;1.60;;;;;;;;;;10967578;27;20016;-61
2024/04/25 22:57:13;;;;;;;10.30;1.83;;;;;;;;;;10975878;27;20512;-60
2024/04/25 23:02:14;;;;;;;7.50;1.40;;;;;;;;;;10974349;26;20025;-61
2024/04/25 23:07:16;;;;;;;1.88;1.42;;;;;;;;;;10977800;27;20049;-61
2024/04/25 23:12:17;;;;;;;3.50;1.60;;;;;;;;;;10973629;26;20005;-61
2024/04/25 23:17:18;;;;;;;6.10;1.52;;;;;;;;;;10961150;27;19997;-62
2024/04/25 23:22:19;;;;;;;2.42;1.48;;;;;;;;;;10954942;26;20117;-62
2024/04/25 23:27:21;;;;;;;2.70;1.60;;;;;;;;;;10973136;27;20030;-60
2024/04/25 23:32:22;;;;;;;5.47;1.50;;;;;;;;;;10976890;26;20306;-61
2024/04/25 23:37:23;;;;;;;2.67;1.63;;;;;;;;;;10976547;26;20013;-61
2024/04/25 23:42:25;;;;;;;4.10;1.88;;;;;;;;;;10974975;26;20093;-61
2024/04/25 23:47:26;;;;;;;2.30;1.60;;;;;;;;;;10981696;26;20016;-61
2024/04/25 23:52:27;;;;;;;4.90;1.73;;;;;;;;;;10987749;26;20025;-61
2024/04/25 23:57:31;;;;;;;2.70;1.58;;;;;;;;;;10980717;26;20013;-60
